Terminal Aerodrome Forecast
Issued by NWS Des Moines, IA

Home | Current Version | Previous Version | Text Only | Print | Product List | Glossary On
Versions: 1 2 3 4 5 6 7 8 9 10 11 12 13 14 15
000
FTUS43 KDMX 271339 AAA
TAFALO
TAF AMD
KALO 271339Z 2714/2812 30013KT 6SM BR OVC012
      TEMPO 2714/2717 BKN009
     FM271700 29012KT P6SM BKN020
     FM272100 28011KT P6SM SCT035
     FM280200 VRB05KT P6SM FEW030 SCT100=

USA.gov is the U.S. government's official web portal to all federal, state and local government web resources and services.